sensor_id;sensor_type;location;lat;lon;timestamp;pressure;altitude;pressure_sealevel;temperature;humidity
38400;BME280;24180;42.676;23.320;2023-05-20T00:00:17;95016.56;;;12.00;100.00
38400;BME280;24180;42.676;23.320;2023-05-20T00:02:43;94998.22;;;11.84;100.00
38400;BME280;24180;42.676;23.320;2023-05-20T00:05:08;95028.44;;;12.02;100.00
38400;BME280;24180;42.676;23.320;2023-05-20T00:07:34;95021.38;;;11.95;100.00
38400;BME280;24180;42.676;23.320;2023-05-20T00:09:59;95022.03;;;11.97;100.00
38400;BME280;24180;42.676;23.320;2023-05-20T00:12:24;94995.78;;;11.82;100.00
38400;BME280;24180;42.676;23.320;2023-05-20T00:14:50;94980.50;;;11.79;100.00
38400;BME280;24180;42.676;23.320;2023-05-20T00:17:15;95013.59;;;11.95;100.00
38400;BME280;24180;42.676;23.320;2023-05-20T00:19:41;94982.97;;;11.71;100.00
38400;BME280;24180;42.676;23.320;2023-05-20T00:22:07;95021.19;;;11.79;100.00
38400;BME280;24180;42.676;23.320;2023-05-20T00:24:32;95015.63;;;11.73;100.00
38400;BME280;24180;42.676;23.320;2023-05-20T00:26:57;95021.19;;;11.79;100.00
38400;BME280;24180;42.676;23.320;2023-05-20T00:29:23;95004.81;;;11.78;100.00
38400;BME280;24180;42.676;23.320;2023-05-20T00:31:48;94978.25;;;11.57;100.00
38400;BME280;24180;42.676;23.320;2023-05-20T00:34:14;94969.91;;;11.63;100.00
38400;BME280;24180;42.676;23.320;2023-05-20T00:36:39;94997.84;;;11.79;100.00
38400;BME280;24180;42.676;23.320;2023-05-20T00:39:05;95002.22;;;11.78;100.00
38400;BME280;24180;42.676;23.320;2023-05-20T00:41:31;94982.34;;;11.59;100.00
38400;BME280;24180;42.676;23.320;2023-05-20T00:43:56;94997.59;;;11.72;100.00
38400;BME280;24180;42.676;23.320;2023-05-20T00:46:22;94999.50;;;11.70;100.00
38400;BME280;24180;42.676;23.320;2023-05-20T00:48:48;94990.22;;;11.67;100.00
38400;BME280;24180;42.676;23.320;2023-05-20T00:51:15;94985.47;;;11.63;100.00
38400;BME280;24180;42.676;23.320;2023-05-20T00:53:42;94989.97;;;11.61;100.00
38400;BME280;24180;42.676;23.320;2023-05-20T00:56:07;94989.59;;;11.56;100.00
38400;BME280;24180;42.676;23.320;2023-05-20T00:58:34;94956.34;;;11.42;100.00
38400;BME280;24180;42.676;23.320;2023-05-20T01:01:03;94986.19;;;11.55;100.00
38400;BME280;24180;42.676;23.320;2023-05-20T01:03:29;94979.47;;;11.62;100.00
38400;BME280;24180;42.676;23.320;2023-05-20T01:05:55;94987.97;;;11.55;100.00
38400;BME280;24180;42.676;23.320;2023-05-20T01:08:21;94981.59;;;11.40;100.00
38400;BME280;24180;42.676;23.320;2023-05-20T01:10:53;94977.53;;;11.37;100.00
38400;BME280;24180;42.676;23.320;2023-05-20T01:13:21;94944.44;;;11.21;100.00
38400;BME280;24180;42.676;23.320;2023-05-20T01:15:50;94994.13;;;11.54;100.00
38400;BME280;24180;42.676;23.320;2023-05-20T01:18:18;94982.72;;;11.37;100.00
38400;BME280;24180;42.676;23.320;2023-05-20T01:20:50;94989.97;;;11.34;100.00
38400;BME280;24180;42.676;23.320;2023-05-20T01:23:18;94974.31;;;11.25;100.00
38400;BME280;24180;42.676;23.320;2023-05-20T01:25:43;94989.53;;;11.38;100.00
38400;BME280;24180;42.676;23.320;2023-05-20T01:28:09;94959.16;;;11.31;100.00
38400;BME280;24180;42.676;23.320;2023-05-20T01:30:38;94953.06;;;11.12;100.00
38400;BME280;24180;42.676;23.320;2023-05-20T01:33:08;94971.94;;;11.32;100.00
38400;BME280;24180;42.676;23.320;2023-05-20T01:35:35;94997.03;;;11.41;100.00
38400;BME280;24180;42.676;23.320;2023-05-20T01:38:03;94953.97;;;11.31;100.00
38400;BME280;24180;42.676;23.320;2023-05-20T01:40:32;94989.84;;;11.35;100.00
38400;BME280;24180;42.676;23.320;2023-05-20T01:42:58;94979.63;;;11.24;100.00
38400;BME280;24180;42.676;23.320;2023-05-20T01:45:24;94998.16;;;11.29;100.00
38400;BME280;24180;42.676;23.320;2023-05-20T01:47:50;94989.72;;;11.27;100.00
38400;BME280;24180;42.676;23.320;2023-05-20T01:50:16;94984.38;;;11.28;100.00
38400;BME280;24180;42.676;23.320;2023-05-20T01:52:41;94983.66;;;11.36;100.00
38400;BME280;24180;42.676;23.320;2023-05-20T01:55:07;94986.66;;;11.41;100.00
38400;BME280;24180;42.676;23.320;2023-05-20T01:57:32;94945.00;;;11.15;100.00
38400;BME280;24180;42.676;23.320;2023-05-20T01:59:58;94983.41;;;11.39;100.00
38400;BME280;24180;42.676;23.320;2023-05-20T02:02:23;94974.97;;;11.27;100.00
38400;BME280;24180;42.676;23.320;2023-05-20T02:04:50;94980.69;;;11.31;100.00
38400;BME280;24180;42.676;23.320;2023-05-20T02:07:16;94975.78;;;11.28;100.00
38400;BME280;24180;42.676;23.320;2023-05-20T02:09:45;94985.78;;;11.23;100.00
38400;BME280;24180;42.676;23.320;2023-05-20T02:12:11;94958.53;;;11.09;100.00
38400;BME280;24180;42.676;23.320;2023-05-20T02:14:47;94967.66;;;11.13;100.00
38400;BME280;24180;42.676;23.320;2023-05-20T02:17:13;94958.53;;;11.09;100.00
38400;BME280;24180;42.676;23.320;2023-05-20T02:19:40;94965.38;;;11.01;100.00
38400;BME280;24180;42.676;23.320;2023-05-20T02:22:06;94975.59;;;11.02;100.00
38400;BME280;24180;42.676;23.320;2023-05-20T02:24:32;94942.25;;;10.80;100.00
38400;BME280;24180;42.676;23.320;2023-05-20T02:26:57;94963.72;;;11.00;100.00
38400;BME280;24180;42.676;23.320;2023-05-20T02:29:24;94953.53;;;10.98;100.00
38400;BME280;24180;42.676;23.320;2023-05-20T02:31:49;94936.13;;;10.81;100.00
38400;BME280;24180;42.676;23.320;2023-05-20T02:34:16;94956.50;;;11.03;100.00
38400;BME280;24180;42.676;23.320;2023-05-20T02:36:42;94972.84;;;11.04;100.00
38400;BME280;24180;42.676;23.320;2023-05-20T02:39:07;94942.13;;;10.82;100.00
38400;BME280;24180;42.676;23.320;2023-05-20T02:41:33;94961.03;;;10.92;100.00
38400;BME280;24180;42.676;23.320;2023-05-20T02:43:58;94925.22;;;10.68;100.00
38400;BME280;24180;42.676;23.320;2023-05-20T02:46:23;94936.69;;;10.65;100.00
38400;BME280;24180;42.676;23.320;2023-05-20T02:48:49;94963.50;;;10.84;100.00
38400;BME280;24180;42.676;23.320;2023-05-20T02:51:14;94952.22;;;10.75;100.00
38400;BME280;24180;42.676;23.320;2023-05-20T02:53:40;94959.97;;;10.85;100.00
38400;BME280;24180;42.676;23.320;2023-05-20T02:56:06;94967.19;;;10.81;100.00
38400;BME280;24180;42.676;23.320;2023-05-20T02:58:33;94968.84;;;10.82;100.00
38400;BME280;24180;42.676;23.320;2023-05-20T03:01:02;94951.81;;;10.70;100.00
38400;BME280;24180;42.676;23.320;2023-05-20T03:03:28;94961.78;;;10.74;100.00
38400;BME280;24180;42.676;23.320;2023-05-20T03:05:53;94938.88;;;10.60;100.00
38400;BME280;24180;42.676;23.320;2023-05-20T03:08:20;94948.94;;;10.73;100.00
38400;BME280;24180;42.676;23.320;2023-05-20T03:10:46;94948.69;;;10.66;100.00
38400;BME280;24180;42.676;23.320;2023-05-20T03:13:12;94981.53;;;10.66;100.00
38400;BME280;24180;42.676;23.320;2023-05-20T03:15:39;94971.34;;;10.55;100.00
38400;BME280;24180;42.676;23.320;2023-05-20T03:18:05;94977.03;;;10.68;100.00
38400;BME280;24180;42.676;23.320;2023-05-20T03:20:33;94967.41;;;10.51;100.00
38400;BME280;24180;42.676;23.320;2023-05-20T03:23:01;94985.38;;;10.62;100.00
38400;BME280;24180;42.676;23.320;2023-05-20T03:25:26;94989.03;;;10.69;100.00
38400;BME280;24180;42.676;23.320;2023-05-20T03:27:52;94957.16;;;10.49;100.00
38400;BME280;24180;42.676;23.320;2023-05-20T03:30:17;94964.78;;;10.60;100.00
38400;BME280;24180;42.676;23.320;2023-05-20T03:32:43;95001.28;;;10.76;100.00
38400;BME280;24180;42.676;23.320;2023-05-20T03:35:08;94978.25;;;10.73;100.00
38400;BME280;24180;42.676;23.320;2023-05-20T03:37:34;94956.88;;;10.62;100.00
38400;BME280;24180;42.676;23.320;2023-05-20T03:40:01;94988.44;;;10.94;100.00
38400;BME280;24180;42.676;23.320;2023-05-20T03:42:26;94949.53;;;10.67;100.00
38400;BME280;24180;42.676;23.320;2023-05-20T03:44:52;94961.38;;;10.69;100.00
38400;BME280;24180;42.676;23.320;2023-05-20T03:47:17;94961.59;;;10.76;100.00
38400;BME280;24180;42.676;23.320;2023-05-20T03:49:43;94995.81;;;10.89;100.00
38400;BME280;24180;42.676;23.320;2023-05-20T03:52:08;95006.41;;;11.05;100.00
38400;BME280;24180;42.676;23.320;2023-05-20T03:54:33;94993.56;;;11.13;100.00
38400;BME280;24180;42.676;23.320;2023-05-20T03:57:00;95008.84;;;11.16;100.00
38400;BME280;24180;42.676;23.320;2023-05-20T03:59:27;94973.69;;;11.04;100.00
38400;BME280;24180;42.676;23.320;2023-05-20T04:01:53;95008.19;;;11.14;100.00
38400;BME280;24180;42.676;23.320;2023-05-20T04:04:18;94981.63;;;10.93;100.00
38400;BME280;24180;42.676;23.320;2023-05-20T04:06:44;95014.97;;;11.25;100.00
38400;BME280;24180;42.676;23.320;2023-05-20T04:09:10;94993.16;;;11.18;100.00
38400;BME280;24180;42.676;23.320;2023-05-20T04:11:36;95018.38;;;11.25;100.00
38400;BME280;24180;42.676;23.320;2023-05-20T04:14:02;94994.34;;;11.23;100.00
38400;BME280;24180;42.676;23.320;2023-05-20T04:16:27;94972.84;;;11.13;100.00
38400;BME280;24180;42.676;23.320;2023-05-20T04:18:54;94991.88;;;11.32;100.00
38400;BME280;24180;42.676;23.320;2023-05-20T04:21:19;94993.50;;;11.33;100.00
38400;BME280;24180;42.676;23.320;2023-05-20T04:23:45;94998.97;;;11.39;100.00
38400;BME280;24180;42.676;23.320;2023-05-20T04:26:10;95029.56;;;11.63;100.00
38400;BME280;24180;42.676;23.320;2023-05-20T04:28:37;95018.09;;;11.75;100.00
38400;BME280;24180;42.676;23.320;2023-05-20T04:31:03;94996.50;;;11.65;100.00
38400;BME280;24180;42.676;23.320;2023-05-20T04:33:32;95021.44;;;11.85;100.00
38400;BME280;24180;42.676;23.320;2023-05-20T04:36:02;94997.56;;;11.82;100.00
38400;BME280;24180;42.676;23.320;2023-05-20T04:38:29;95012.69;;;11.86;100.00
38400;BME280;24180;42.676;23.320;2023-05-20T04:40:59;95026.16;;;11.99;100.00
38400;BME280;24180;42.676;23.320;2023-05-20T04:43:26;95007.69;;;12.02;100.00
38400;BME280;24180;42.676;23.320;2023-05-20T04:45:54;95039.56;;;12.12;100.00
38400;BME280;24180;42.676;23.320;2023-05-20T04:48:20;95045.06;;;12.09;100.00
38400;BME280;24180;42.676;23.320;2023-05-20T04:50:46;95038.31;;;12.16;100.00
38400;BME280;24180;42.676;23.320;2023-05-20T04:53:14;95033.22;;;12.25;100.00
38400;BME280;24180;42.676;23.320;2023-05-20T04:55:40;95039.59;;;12.30;100.00
38400;BME280;24180;42.676;23.320;2023-05-20T04:58:05;95012.75;;;12.22;100.00
38400;BME280;24180;42.676;23.320;2023-05-20T05:00:32;95009.19;;;12.23;100.00
38400;BME280;24180;42.676;23.320;2023-05-20T05:02:59;95026.53;;;12.40;100.00
38400;BME280;24180;42.676;23.320;2023-05-20T05:05:25;95011.50;;;12.43;100.00
38400;BME280;24180;42.676;23.320;2023-05-20T05:07:50;95043.56;;;12.70;100.00
38400;BME280;24180;42.676;23.320;2023-05-20T05:10:16;95012.44;;;12.60;100.00
38400;BME280;24180;42.676;23.320;2023-05-20T05:12:41;95020.09;;;12.61;100.00
38400;BME280;24180;42.676;23.320;2023-05-20T05:15:07;95042.28;;;12.91;100.00
38400;BME280;24180;42.676;23.320;2023-05-20T05:17:32;95041.97;;;12.94;100.00
38400;BME280;24180;42.676;23.320;2023-05-20T05:19:58;95054.41;;;13.08;100.00
38400;BME280;24180;42.676;23.320;2023-05-20T05:22:23;95024.16;;;12.99;100.00
38400;BME280;24180;42.676;23.320;2023-05-20T05:24:48;95026.00;;;13.07;100.00
38400;BME280;24180;42.676;23.320;2023-05-20T05:27:14;95029.44;;;13.33;100.00
38400;BME280;24180;42.676;23.320;2023-05-20T05:29:39;95044.50;;;13.47;100.00
38400;BME280;24180;42.676;23.320;2023-05-20T05:32:05;95052.53;;;13.62;100.00
38400;BME280;24180;42.676;23.320;2023-05-20T05:34:30;95052.88;;;13.67;100.00
38400;BME280;24180;42.676;23.320;2023-05-20T05:36:56;95046.59;;;13.78;100.00
38400;BME280;24180;42.676;23.320;2023-05-20T05:39:21;95024.50;;;13.90;100.00
38400;BME280;24180;42.676;23.320;2023-05-20T05:41:47;95053.56;;;14.11;100.00
38400;BME280;24180;42.676;23.320;2023-05-20T05:44:12;95043.31;;;14.18;100.00
38400;BME280;24180;42.676;23.320;2023-05-20T05:46:38;95037.31;;;14.25;100.00
38400;BME280;24180;42.676;23.320;2023-05-20T05:49:03;95050.28;;;14.43;100.00
38400;BME280;24180;42.676;23.320;2023-05-20T05:51:28;95058.44;;;14.56;100.00
38400;BME280;24180;42.676;23.320;2023-05-20T05:53:55;95059.59;;;14.70;100.00
38400;BME280;24180;42.676;23.320;2023-05-20T05:56:20;95055.06;;;14.80;100.00
38400;BME280;24180;42.676;23.320;2023-05-20T05:58:46;95042.66;;;14.82;100.00
38400;BME280;24180;42.676;23.320;2023-05-20T06:01:12;95020.81;;;14.75;100.00
38400;BME280;24180;42.676;23.320;2023-05-20T06:03:38;95022.63;;;14.98;100.00
38400;BME280;24180;42.676;23.320;2023-05-20T06:06:03;95001.59;;;14.92;100.00
38400;BME280;24180;42.676;23.320;2023-05-20T06:08:28;95039.38;;;15.36;100.00
38400;BME280;24180;42.676;23.320;2023-05-20T06:10:54;95025.16;;;15.47;100.00
38400;BME280;24180;42.676;23.320;2023-05-20T06:13:20;95032.31;;;15.69;100.00
38400;BME280;24180;42.676;23.320;2023-05-20T06:15:47;95056.75;;;15.93;100.00
38400;BME280;24180;42.676;23.320;2023-05-20T06:18:13;95057.38;;;15.95;100.00
38400;BME280;24180;42.676;23.320;2023-05-20T06:20:38;95025.56;;;15.91;100.00
38400;BME280;24180;42.676;23.320;2023-05-20T06:23:03;95029.91;;;16.07;100.00
38400;BME280;24180;42.676;23.320;2023-05-20T06:25:29;95062.06;;;16.38;100.00
38400;BME280;24180;42.676;23.320;2023-05-20T06:27:54;95045.50;;;16.54;100.00
38400;BME280;24180;42.676;23.320;2023-05-20T06:30:20;95043.63;;;16.70;100.00
38400;BME280;24180;42.676;23.320;2023-05-20T06:32:45;95047.00;;;16.79;100.00
38400;BME280;24180;42.676;23.320;2023-05-20T06:35:11;95008.19;;;16.68;100.00
38400;BME280;24180;42.676;23.320;2023-05-20T06:37:36;95013.81;;;16.79;100.00
38400;BME280;24180;42.676;23.320;2023-05-20T06:40:03;95037.16;;;17.04;100.00
38400;BME280;24180;42.676;23.320;2023-05-20T06:42:28;95024.94;;;17.19;100.00
38400;BME280;24180;42.676;23.320;2023-05-20T06:44:54;95021.34;;;17.35;100.00
38400;BME280;24180;42.676;23.320;2023-05-20T06:47:19;95004.50;;;17.37;100.00
38400;BME280;24180;42.676;23.320;2023-05-20T06:49:45;94981.81;;;17.29;100.00
38400;BME280;24180;42.676;23.320;2023-05-20T06:52:10;94996.56;;;17.45;100.00
38400;BME280;24180;42.676;23.320;2023-05-20T06:54:39;94999.94;;;17.68;100.00
38400;BME280;24180;42.676;23.320;2023-05-20T06:57:09;95018.25;;;17.98;100.00
38400;BME280;24180;42.676;23.320;2023-05-20T06:59:36;95035.56;;;18.28;100.00
38400;BME280;24180;42.676;23.320;2023-05-20T07:02:02;95030.66;;;18.40;100.00
38400;BME280;24180;42.676;23.320;2023-05-20T07:04:28;95008.31;;;18.44;100.00
38400;BME280;24180;42.676;23.320;2023-05-20T07:06:53;95033.69;;;18.73;100.00
38400;BME280;24180;42.676;23.320;2023-05-20T07:09:19;95028.19;;;18.89;100.00
38400;BME280;24180;42.676;23.320;2023-05-20T07:11:44;94998.19;;;18.77;100.00
38400;BME280;24180;42.676;23.320;2023-05-20T07:14:10;94997.44;;;18.83;100.00
38400;BME280;24180;42.676;23.320;2023-05-20T07:16:36;95004.63;;;18.95;100.00
38400;BME280;24180;42.676;23.320;2023-05-20T07:19:02;95009.91;;;19.02;100.00
38400;BME280;24180;42.676;23.320;2023-05-20T07:21:27;95022.41;;;19.21;100.00
38400;BME280;24180;42.676;23.320;2023-05-20T07:23:53;94988.03;;;19.16;100.00
38400;BME280;24180;42.676;23.320;2023-05-20T07:26:18;95022.63;;;19.47;100.00
38400;BME280;24180;42.676;23.320;2023-05-20T07:28:43;95013.75;;;19.48;100.00
38400;BME280;24180;42.676;23.320;2023-05-20T07:31:11;95007.38;;;19.57;100.00
38400;BME280;24180;42.676;23.320;2023-05-20T07:33:36;95006.25;;;19.73;100.00
38400;BME280;24180;42.676;23.320;2023-05-20T07:36:02;94991.31;;;19.74;100.00
38400;BME280;24180;42.676;23.320;2023-05-20T07:38:28;95018.13;;;20.03;100.00
38400;BME280;24180;42.676;23.320;2023-05-20T07:40:53;95021.47;;;20.25;100.00
38400;BME280;24180;42.676;23.320;2023-05-20T07:43:20;95024.28;;;20.24;100.00
38400;BME280;24180;42.676;23.320;2023-05-20T07:45:45;95004.84;;;20.18;100.00
38400;BME280;24180;42.676;23.320;2023-05-20T07:48:11;95021.47;;;20.25;100.00
38400;BME280;24180;42.676;23.320;2023-05-20T07:50:37;94988.38;;;19.96;100.00
38400;BME280;24180;42.676;23.320;2023-05-20T07:53:04;94999.41;;;20.26;100.00
38400;BME280;24180;42.676;23.320;2023-05-20T07:55:32;95015.91;;;20.54;100.00
38400;BME280;24180;42.676;23.320;2023-05-20T07:57:58;95012.31;;;20.62;100.00
38400;BME280;24180;42.676;23.320;2023-05-20T08:00:23;95015.16;;;20.67;100.00
38400;BME280;24180;42.676;23.320;2023-05-20T08:02:49;95013.59;;;20.92;100.00
38400;BME280;24180;42.676;23.320;2023-05-20T08:05:14;95018.03;;;20.85;99.30
38400;BME280;24180;42.676;23.320;2023-05-20T08:07:39;94986.25;;;20.74;100.00
38400;BME280;24180;42.676;23.320;2023-05-20T08:10:05;94976.13;;;20.77;99.34
38400;BME280;24180;42.676;23.320;2023-05-20T08:12:31;94999.41;;;21.00;100.00
38400;BME280;24180;42.676;23.320;2023-05-20T08:14:57;95008.19;;;21.20;100.00
38400;BME280;24180;42.676;23.320;2023-05-20T08:17:22;95010.59;;;21.28;99.57
38400;BME280;24180;42.676;23.320;2023-05-20T08:19:47;94988.13;;;21.26;98.25
38400;BME280;24180;42.676;23.320;2023-05-20T08:22:13;95008.16;;;21.27;97.19
38400;BME280;24180;42.676;23.320;2023-05-20T08:24:38;94970.69;;;21.25;98.88
38400;BME280;24180;42.676;23.320;2023-05-20T08:27:04;95007.97;;;21.22;100.00
38400;BME280;24180;42.676;23.320;2023-05-20T08:29:29;94975.91;;;20.98;98.01
38400;BME280;24180;42.676;23.320;2023-05-20T08:31:55;95005.13;;;21.10;98.19
38400;BME280;24180;42.676;23.320;2023-05-20T08:34:21;94996.59;;;21.08;97.58
38400;BME280;24180;42.676;23.320;2023-05-20T08:36:46;95003.09;;;21.19;98.59
38400;BME280;24180;42.676;23.320;2023-05-20T08:39:11;94995.78;;;21.08;100.00
38400;BME280;24180;42.676;23.320;2023-05-20T08:41:38;94995.81;;;21.14;98.87
38400;BME280;24180;42.676;23.320;2023-05-20T08:44:04;95000.84;;;21.09;98.54
38400;BME280;24180;42.676;23.320;2023-05-20T08:46:31;94989.94;;;21.12;97.63
38400;BME280;24180;42.676;23.320;2023-05-20T08:48:58;94961.13;;;20.91;100.00
38400;BME280;24180;42.676;23.320;2023-05-20T08:51:26;94996.03;;;21.13;100.00
38400;BME280;24180;42.676;23.320;2023-05-20T08:53:51;94990.50;;;21.08;100.00
38400;BME280;24180;42.676;23.320;2023-05-20T08:56:17;94982.63;;;21.01;100.00
38400;BME280;24180;42.676;23.320;2023-05-20T08:58:44;95008.78;;;21.35;100.00
38400;BME280;24180;42.676;23.320;2023-05-20T09:01:11;94975.16;;;21.18;99.70
38400;BME280;24180;42.676;23.320;2023-05-20T09:03:36;94992.78;;;21.30;99.12
38400;BME280;24180;42.676;23.320;2023-05-20T09:06:06;94992.97;;;21.29;98.48
38400;BME280;24180;42.676;23.320;2023-05-20T09:08:32;94980.84;;;21.21;100.00
38400;BME280;24180;42.676;23.320;2023-05-20T09:10:58;94981.03;;;21.13;98.72
38400;BME280;24180;42.676;23.320;2023-05-20T09:13:26;94982.84;;;21.32;100.00
38400;BME280;24180;42.676;23.320;2023-05-20T09:15:51;94958.13;;;21.33;100.00
38400;BME280;24180;42.676;23.320;2023-05-20T09:18:17;94981.91;;;21.91;96.28
38400;BME280;24180;42.676;23.320;2023-05-20T09:20:45;94964.06;;;22.00;96.06
38400;BME280;24180;42.676;23.320;2023-05-20T09:23:11;94971.16;;;22.06;96.31
38400;BME280;24180;42.676;23.320;2023-05-20T09:25:37;94947.44;;;21.99;95.97
38400;BME280;24180;42.676;23.320;2023-05-20T09:28:06;94943.22;;;21.91;97.16
38400;BME280;24180;42.676;23.320;2023-05-20T09:30:32;94977.09;;;21.95;100.00
38400;BME280;24180;42.676;23.320;2023-05-20T09:32:59;94943.44;;;21.77;99.08
38400;BME280;24180;42.676;23.320;2023-05-20T09:35:26;94975.00;;;22.03;98.80
38400;BME280;24180;42.676;23.320;2023-05-20T09:37:55;94969.56;;;21.98;98.11
38400;BME280;24180;42.676;23.320;2023-05-20T09:40:25;94977.56;;;22.23;99.95
38400;BME280;24180;42.676;23.320;2023-05-20T09:43:01;94971.56;;;22.47;98.87
38400;BME280;24180;42.676;23.320;2023-05-20T09:45:27;94951.38;;;22.66;92.55
38400;BME280;24180;42.676;23.320;2023-05-20T09:47:54;94959.22;;;22.41;92.35
38400;BME280;24180;42.676;23.320;2023-05-20T09:50:21;94961.00;;;22.47;94.13
38400;BME280;24180;42.676;23.320;2023-05-20T09:52:48;94928.06;;;22.63;93.92
38400;BME280;24180;42.676;23.320;2023-05-20T09:55:15;94924.31;;;22.77;91.40
38400;BME280;24180;42.676;23.320;2023-05-20T09:57:41;94938.34;;;23.02;88.17
38400;BME280;24180;42.676;23.320;2023-05-20T10:00:07;94940.72;;;23.10;87.55
38400;BME280;24180;42.676;23.320;2023-05-20T10:02:33;94910.25;;;22.83;86.48
38400;BME280;24180;42.676;23.320;2023-05-20T10:05:02;94943.03;;;23.00;90.61
38400;BME280;24180;42.676;23.320;2023-05-20T10:10:45;94930.66;;;24.23;81.29
38400;BME280;24180;42.676;23.320;2023-05-20T10:13:41;94921.59;;;24.72;74.79
38400;BME280;24180;42.676;23.320;2023-05-20T10:17:24;94916.19;;;24.67;73.13
38400;BME280;24180;42.676;23.320;2023-05-20T10:19:33;94914.75;;;26.22;61.75
38400;BME280;24180;42.676;23.320;2023-05-20T10:22:07;94898.19;;;28.42;49.57
38400;BME280;24180;42.676;23.320;2023-05-20T10:24:35;94901.38;;;31.16;41.53
38400;BME280;24180;42.676;23.320;2023-05-20T10:27:04;94895.44;;;32.98;36.47
38400;BME280;24180;42.676;23.320;2023-05-20T10:30:00;94899.63;;;34.24;32.42
38400;BME280;24180;42.676;23.320;2023-05-20T10:32:31;94903.16;;;33.96;31.71
38400;BME280;24180;42.676;23.320;2023-05-20T10:37:28;94880.81;;;34.24;31.23
38400;BME280;24180;42.676;23.320;2023-05-20T10:40:07;94874.91;;;35.67;28.97
38400;BME280;24180;42.676;23.320;2023-05-20T10:42:35;94893.41;;;36.42;28.42
38400;BME280;24180;42.676;23.320;2023-05-20T10:45:00;94863.22;;;37.87;26.28
38400;BME280;24180;42.676;23.320;2023-05-20T10:47:25;94869.88;;;36.70;26.57
38400;BME280;24180;42.676;23.320;2023-05-20T10:49:51;94859.91;;;36.56;26.28
38400;BME280;24180;42.676;23.320;2023-05-20T10:52:17;94879.69;;;36.52;26.19
38400;BME280;24180;42.676;23.320;2023-05-20T10:57:17;94848.34;;;37.98;25.32
38400;BME280;24180;42.676;23.320;2023-05-20T10:59:43;94857.09;;;37.20;26.01
38400;BME280;24180;42.676;23.320;2023-05-20T11:02:09;94860.41;;;37.61;25.27
38400;BME280;24180;42.676;23.320;2023-05-20T11:04:37;94836.28;;;37.42;24.63
38400;BME280;24180;42.676;23.320;2023-05-20T11:07:02;94842.06;;;38.37;23.96
38400;BME280;24180;42.676;23.320;2023-05-20T11:09:28;94863.88;;;37.09;26.02
38400;BME280;24180;42.676;23.320;2023-05-20T11:11:55;94856.53;;;35.23;27.20
38400;BME280;24180;42.676;23.320;2023-05-20T11:14:20;94848.66;;;32.70;31.28
38400;BME280;24180;42.676;23.320;2023-05-20T11:16:51;94856.41;;;30.73;33.04
38400;BME280;24180;42.676;23.320;2023-05-20T11:19:17;94832.28;;;28.59;37.57
38400;BME280;24180;42.676;23.320;2023-05-20T11:21:46;94802.06;;;27.95;41.38
38400;BME280;24180;42.676;23.320;2023-05-20T11:24:12;94850.50;;;30.71;36.65
38400;BME280;24180;42.676;23.320;2023-05-20T11:26:38;94847.09;;;31.00;35.85
38400;BME280;24180;42.676;23.320;2023-05-20T11:29:04;94852.66;;;31.39;34.56
38400;BME280;24180;42.676;23.320;2023-05-20T11:31:30;94837.16;;;30.76;35.92
38400;BME280;24180;42.676;23.320;2023-05-20T11:33:58;94807.03;;;28.99;39.45
38400;BME280;24180;42.676;23.320;2023-05-20T11:36:26;94827.78;;;31.19;37.01
38400;BME280;24180;42.676;23.320;2023-05-20T11:38:53;94825.78;;;30.08;36.38
38400;BME280;24180;42.676;23.320;2023-05-20T11:41:25;94812.50;;;28.02;41.10
38400;BME280;24180;42.676;23.320;2023-05-20T11:43:58;94794.53;;;27.27;45.01
38400;BME280;24180;42.676;23.320;2023-05-20T11:46:24;94739.38;;;29.05;39.88
38400;BME280;24180;42.676;23.320;2023-05-20T11:48:53;94816.94;;;31.84;35.25
38400;BME280;24180;42.676;23.320;2023-05-20T11:51:26;94815.75;;;31.26;33.97
38400;BME280;24180;42.676;23.320;2023-05-20T11:53:52;94799.16;;;30.94;35.78
38400;BME280;24180;42.676;23.320;2023-05-20T11:56:19;94817.34;;;30.46;36.46
38400;BME280;24180;42.676;23.320;2023-05-20T11:58:45;94822.19;;;29.82;37.82
38400;BME280;24180;42.676;23.320;2023-05-20T12:01:11;94812.41;;;31.80;34.88
38400;BME280;24180;42.676;23.320;2023-05-20T12:03:36;94809.88;;;33.78;30.95
38400;BME280;24180;42.676;23.320;2023-05-20T12:06:02;94758.66;;;32.20;32.41
38400;BME280;24180;42.676;23.320;2023-05-20T12:08:28;94801.41;;;33.90;31.63
38400;BME280;24180;42.676;23.320;2023-05-20T12:10:54;94789.50;;;35.81;28.41
38400;BME280;24180;42.676;23.320;2023-05-20T12:13:19;94793.22;;;36.07;27.46
38400;BME280;24180;42.676;23.320;2023-05-20T12:15:45;94794.16;;;33.66;30.01
38400;BME280;24180;42.676;23.320;2023-05-20T12:18:10;94795.13;;;33.23;32.17
38400;BME280;24180;42.676;23.320;2023-05-20T12:20:36;94801.75;;;31.70;34.36
38400;BME280;24180;42.676;23.320;2023-05-20T12:23:02;94805.41;;;29.87;38.35
38400;BME280;24180;42.676;23.320;2023-05-20T12:25:27;94781.88;;;27.77;42.92
38400;BME280;24180;42.676;23.320;2023-05-20T12:27:54;94818.28;;;27.12;46.68
38400;BME280;24180;42.676;23.320;2023-05-20T12:30:21;94823.66;;;26.22;52.35
38400;BME280;24180;42.676;23.320;2023-05-20T12:32:48;94843.13;;;25.36;56.11
38400;BME280;24180;42.676;23.320;2023-05-20T12:35:15;94836.03;;;24.60;64.87
38400;BME280;24180;42.676;23.320;2023-05-20T12:37:41;94771.81;;;23.52;65.12
38400;BME280;24180;42.676;23.320;2023-05-20T12:40:08;94855.19;;;23.29;71.96
38400;BME280;24180;42.676;23.320;2023-05-20T12:42:35;94826.41;;;22.54;75.73
38400;BME280;24180;42.676;23.320;2023-05-20T12:45:01;94859.59;;;22.36;75.38
38400;BME280;24180;42.676;23.320;2023-05-20T12:47:27;94856.19;;;21.98;75.96